sensor_id;sensor_type;location;lat;lon;timestamp;temperature;humidity
48686;DHT22;34485;51.536;3.816;2022-11-02T00:00:22;10.60;99.90
48686;DHT22;34485;51.536;3.816;2022-11-02T00:02:48;10.50;99.90
48686;DHT22;34485;51.536;3.816;2022-11-02T00:05:14;10.50;99.90
48686;DHT22;34485;51.536;3.816;2022-11-02T00:07:40;10.50;99.90
48686;DHT22;34485;51.536;3.816;2022-11-02T00:10:06;10.50;99.90
48686;DHT22;34485;51.536;3.816;2022-11-02T00:12:32;10.50;99.90
48686;DHT22;34485;51.536;3.816;2022-11-02T00:14:58;10.50;99.90
48686;DHT22;34485;51.536;3.816;2022-11-02T00:17:23;10.40;99.90
48686;DHT22;34485;51.536;3.816;2022-11-02T00:19:49;10.50;99.90
48686;DHT22;34485;51.536;3.816;2022-11-02T00:22:15;10.60;99.90
48686;DHT22;34485;51.536;3.816;2022-11-02T00:24:40;10.60;99.90
48686;DHT22;34485;51.536;3.816;2022-11-02T00:27:06;10.60;99.90
48686;DHT22;34485;51.536;3.816;2022-11-02T00:29:33;10.60;99.90
48686;DHT22;34485;51.536;3.816;2022-11-02T00:31:59;10.60;99.90
48686;DHT22;34485;51.536;3.816;2022-11-02T00:34:24;10.60;99.90
48686;DHT22;34485;51.536;3.816;2022-11-02T00:36:50;10.60;99.90
48686;DHT22;34485;51.536;3.816;2022-11-02T00:39:16;10.60;99.90
48686;DHT22;34485;51.536;3.816;2022-11-02T00:41:41;10.60;99.90
48686;DHT22;34485;51.536;3.816;2022-11-02T00:44:07;10.50;99.90
48686;DHT22;34485;51.536;3.816;2022-11-02T00:46:33;10.60;99.90
48686;DHT22;34485;51.536;3.816;2022-11-02T00:48:58;10.50;99.90
48686;DHT22;34485;51.536;3.816;2022-11-02T00:51:24;10.60;99.90
48686;DHT22;34485;51.536;3.816;2022-11-02T00:53:49;10.60;99.90
48686;DHT22;34485;51.536;3.816;2022-11-02T00:56:15;10.60;99.90
48686;DHT22;34485;51.536;3.816;2022-11-02T00:58:40;10.80;99.90
48686;DHT22;34485;51.536;3.816;2022-11-02T01:01:07;10.90;99.90
48686;DHT22;34485;51.536;3.816;2022-11-02T01:03:32;11.00;99.90
48686;DHT22;34485;51.536;3.816;2022-11-02T01:05:58;11.10;99.90
48686;DHT22;34485;51.536;3.816;2022-11-02T01:08:23;11.20;99.90
48686;DHT22;34485;51.536;3.816;2022-11-02T01:10:49;11.40;99.90
48686;DHT22;34485;51.536;3.816;2022-11-02T01:15:41;11.60;99.90
48686;DHT22;34485;51.536;3.816;2022-11-02T01:18:07;11.60;99.90
48686;DHT22;34485;51.536;3.816;2022-11-02T01:20:33;11.40;99.90
48686;DHT22;34485;51.536;3.816;2022-11-02T01:22:59;11.40;99.90
48686;DHT22;34485;51.536;3.816;2022-11-02T01:25:25;11.30;99.90
48686;DHT22;34485;51.536;3.816;2022-11-02T01:27:50;11.40;99.90
48686;DHT22;34485;51.536;3.816;2022-11-02T01:30:16;11.40;99.90
48686;DHT22;34485;51.536;3.816;2022-11-02T01:32:41;11.40;99.90
48686;DHT22;34485;51.536;3.816;2022-11-02T01:35:07;11.40;99.90
48686;DHT22;34485;51.536;3.816;2022-11-02T01:37:34;11.40;99.90
48686;DHT22;34485;51.536;3.816;2022-11-02T01:40:00;11.50;99.90
48686;DHT22;34485;51.536;3.816;2022-11-02T01:42:26;11.50;99.90
48686;DHT22;34485;51.536;3.816;2022-11-02T01:44:53;11.40;99.90
48686;DHT22;34485;51.536;3.816;2022-11-02T01:47:26;11.40;99.90
48686;DHT22;34485;51.536;3.816;2022-11-02T01:49:56;11.40;99.90
48686;DHT22;34485;51.536;3.816;2022-11-02T01:52:29;11.40;99.90
48686;DHT22;34485;51.536;3.816;2022-11-02T01:55:03;11.40;99.90
48686;DHT22;34485;51.536;3.816;2022-11-02T01:57:32;11.50;99.90
48686;DHT22;34485;51.536;3.816;2022-11-02T02:00:05;11.50;99.90
48686;DHT22;34485;51.536;3.816;2022-11-02T02:02:32;11.50;99.90
48686;DHT22;34485;51.536;3.816;2022-11-02T02:05:06;11.50;99.90
48686;DHT22;34485;51.536;3.816;2022-11-02T02:07:34;11.50;99.90
48686;DHT22;34485;51.536;3.816;2022-11-02T02:10:00;11.50;99.90
48686;DHT22;34485;51.536;3.816;2022-11-02T02:12:26;11.50;99.90
48686;DHT22;34485;51.536;3.816;2022-11-02T02:14:52;11.60;99.90
48686;DHT22;34485;51.536;3.816;2022-11-02T02:22:55;11.60;99.90
48686;DHT22;34485;51.536;3.816;2022-11-02T02:28:41;11.70;99.90
48686;DHT22;34485;51.536;3.816;2022-11-02T02:31:37;11.70;99.90
48686;DHT22;34485;51.536;3.816;2022-11-02T02:34:10;11.50;99.90
48686;DHT22;34485;51.536;3.816;2022-11-02T02:36:52;11.40;99.90
48686;DHT22;34485;51.536;3.816;2022-11-02T02:39:39;11.40;99.90
48686;DHT22;34485;51.536;3.816;2022-11-02T02:42:22;11.30;99.90
48686;DHT22;34485;51.536;3.816;2022-11-02T02:45:00;11.30;99.90
48686;DHT22;34485;51.536;3.816;2022-11-02T02:47:31;11.20;99.90
48686;DHT22;34485;51.536;3.816;2022-11-02T02:50:03;11.20;99.90
48686;DHT22;34485;51.536;3.816;2022-11-02T02:52:31;11.20;99.90
48686;DHT22;34485;51.536;3.816;2022-11-02T02:54:58;11.20;99.90
48686;DHT22;34485;51.536;3.816;2022-11-02T02:57:29;11.20;99.90
48686;DHT22;34485;51.536;3.816;2022-11-02T02:59:55;11.20;99.90
48686;DHT22;34485;51.536;3.816;2022-11-02T03:02:27;11.20;99.90
48686;DHT22;34485;51.536;3.816;2022-11-02T03:04:54;11.30;99.90
48686;DHT22;34485;51.536;3.816;2022-11-02T03:07:26;11.20;99.90
48686;DHT22;34485;51.536;3.816;2022-11-02T03:10:19;11.30;99.90
48686;DHT22;34485;51.536;3.816;2022-11-02T03:15:23;11.30;99.90
48686;DHT22;34485;51.536;3.816;2022-11-02T03:26:05;11.20;99.90
48686;DHT22;34485;51.536;3.816;2022-11-02T03:28:44;11.10;99.90
48686;DHT22;34485;51.536;3.816;2022-11-02T03:31:17;11.10;99.90
48686;DHT22;34485;51.536;3.816;2022-11-02T03:33:55;11.10;99.90
48686;DHT22;34485;51.536;3.816;2022-11-02T03:36:30;11.10;99.90
48686;DHT22;34485;51.536;3.816;2022-11-02T03:39:06;11.20;99.90
48686;DHT22;34485;51.536;3.816;2022-11-02T03:41:33;11.20;99.90
48686;DHT22;34485;51.536;3.816;2022-11-02T03:44:10;11.20;99.90
48686;DHT22;34485;51.536;3.816;2022-11-02T03:46:39;11.30;99.90
48686;DHT22;34485;51.536;3.816;2022-11-02T03:49:06;11.30;99.90
48686;DHT22;34485;51.536;3.816;2022-11-02T03:51:37;11.30;99.90
48686;DHT22;34485;51.536;3.816;2022-11-02T03:54:20;11.30;99.90
48686;DHT22;34485;51.536;3.816;2022-11-02T03:56:53;11.30;99.90
48686;DHT22;34485;51.536;3.816;2022-11-02T03:59:21;11.40;99.90
48686;DHT22;34485;51.536;3.816;2022-11-02T04:01:49;11.30;99.90
48686;DHT22;34485;51.536;3.816;2022-11-02T04:04:15;11.30;99.90
48686;DHT22;34485;51.536;3.816;2022-11-02T04:06:41;11.30;99.90
48686;DHT22;34485;51.536;3.816;2022-11-02T04:09:09;11.40;99.90
48686;DHT22;34485;51.536;3.816;2022-11-02T04:11:35;11.40;99.90
48686;DHT22;34485;51.536;3.816;2022-11-02T04:14:19;11.40;99.90
48686;DHT22;34485;51.536;3.816;2022-11-02T04:17:10;11.40;99.90
48686;DHT22;34485;51.536;3.816;2022-11-02T04:19:55;11.40;99.90
48686;DHT22;34485;51.536;3.816;2022-11-02T04:22:21;11.40;99.90
48686;DHT22;34485;51.536;3.816;2022-11-02T04:25:07;11.50;99.90
48686;DHT22;34485;51.536;3.816;2022-11-02T04:27:44;11.40;99.90
48686;DHT22;34485;51.536;3.816;2022-11-02T04:30:10;11.40;99.90
48686;DHT22;34485;51.536;3.816;2022-11-02T04:32:40;11.50;99.90
48686;DHT22;34485;51.536;3.816;2022-11-02T04:35:26;11.50;99.90
48686;DHT22;34485;51.536;3.816;2022-11-02T04:37:51;11.50;99.90
48686;DHT22;34485;51.536;3.816;2022-11-02T04:40:35;11.50;99.90
48686;DHT22;34485;51.536;3.816;2022-11-02T04:43:01;11.60;99.90
48686;DHT22;34485;51.536;3.816;2022-11-02T04:45:27;11.60;99.90
48686;DHT22;34485;51.536;3.816;2022-11-02T04:47:57;11.60;99.90
48686;DHT22;34485;51.536;3.816;2022-11-02T04:50:23;11.60;99.90
48686;DHT22;34485;51.536;3.816;2022-11-02T04:52:55;11.50;99.90
48686;DHT22;34485;51.536;3.816;2022-11-02T04:55:20;11.50;99.90
48686;DHT22;34485;51.536;3.816;2022-11-02T04:57:46;11.60;99.90
48686;DHT22;34485;51.536;3.816;2022-11-02T05:00:12;11.50;99.90
48686;DHT22;34485;51.536;3.816;2022-11-02T05:02:38;11.50;99.90
48686;DHT22;34485;51.536;3.816;2022-11-02T05:05:03;11.50;99.90
48686;DHT22;34485;51.536;3.816;2022-11-02T05:07:30;11.50;99.90
48686;DHT22;34485;51.536;3.816;2022-11-02T05:09:56;11.40;99.90
48686;DHT22;34485;51.536;3.816;2022-11-02T05:12:21;11.40;99.90
48686;DHT22;34485;51.536;3.816;2022-11-02T05:14:47;11.40;99.90
48686;DHT22;34485;51.536;3.816;2022-11-02T05:17:12;11.30;99.90
48686;DHT22;34485;51.536;3.816;2022-11-02T05:19:38;11.30;99.90
48686;DHT22;34485;51.536;3.816;2022-11-02T05:22:04;11.20;99.90
48686;DHT22;34485;51.536;3.816;2022-11-02T05:24:30;11.20;99.90
48686;DHT22;34485;51.536;3.816;2022-11-02T05:26:55;11.20;99.90
48686;DHT22;34485;51.536;3.816;2022-11-02T05:29:21;11.20;99.90
48686;DHT22;34485;51.536;3.816;2022-11-02T05:31:46;11.20;99.90
48686;DHT22;34485;51.536;3.816;2022-11-02T05:34:12;11.10;99.90
48686;DHT22;34485;51.536;3.816;2022-11-02T05:36:37;11.10;99.90
48686;DHT22;34485;51.536;3.816;2022-11-02T05:51:13;11.10;99.90
48686;DHT22;34485;51.536;3.816;2022-11-02T05:53:38;10.90;99.90
48686;DHT22;34485;51.536;3.816;2022-11-02T05:56:05;10.90;99.90
48686;DHT22;34485;51.536;3.816;2022-11-02T05:58:32;10.90;99.90
48686;DHT22;34485;51.536;3.816;2022-11-02T06:01:02;10.90;99.90
48686;DHT22;34485;51.536;3.816;2022-11-02T06:03:29;10.80;99.90
48686;DHT22;34485;51.536;3.816;2022-11-02T06:05:59;10.80;99.90
48686;DHT22;34485;51.536;3.816;2022-11-02T06:08:26;10.80;99.90
48686;DHT22;34485;51.536;3.816;2022-11-02T06:10:52;10.80;99.90
48686;DHT22;34485;51.536;3.816;2022-11-02T06:13:17;10.80;99.90
48686;DHT22;34485;51.536;3.816;2022-11-02T06:15:43;10.80;99.90
48686;DHT22;34485;51.536;3.816;2022-11-02T06:18:08;10.80;99.90
48686;DHT22;34485;51.536;3.816;2022-11-02T06:20:34;10.80;99.90
48686;DHT22;34485;51.536;3.816;2022-11-02T06:23:00;10.80;99.90
48686;DHT22;34485;51.536;3.816;2022-11-02T06:25:25;10.80;99.90
48686;DHT22;34485;51.536;3.816;2022-11-02T06:27:52;10.90;99.90
48686;DHT22;34485;51.536;3.816;2022-11-02T06:30:20;10.90;99.90
48686;DHT22;34485;51.536;3.816;2022-11-02T06:32:50;10.90;99.90
48686;DHT22;34485;51.536;3.816;2022-11-02T06:35:17;10.80;99.90
48686;DHT22;34485;51.536;3.816;2022-11-02T06:37:44;10.80;99.90
48686;DHT22;34485;51.536;3.816;2022-11-02T06:40:10;10.90;99.90
48686;DHT22;34485;51.536;3.816;2022-11-02T06:42:36;10.90;99.90
48686;DHT22;34485;51.536;3.816;2022-11-02T06:45:02;10.80;99.90
48686;DHT22;34485;51.536;3.816;2022-11-02T06:47:32;10.80;99.90
48686;DHT22;34485;51.536;3.816;2022-11-02T06:49:59;10.70;99.90
48686;DHT22;34485;51.536;3.816;2022-11-02T06:54:54;10.70;99.90
48686;DHT22;34485;51.536;3.816;2022-11-02T06:57:21;10.70;99.90
48686;DHT22;34485;51.536;3.816;2022-11-02T06:59:46;10.70;99.90
48686;DHT22;34485;51.536;3.816;2022-11-02T07:02:12;10.70;99.90
48686;DHT22;34485;51.536;3.816;2022-11-02T07:04:38;10.70;99.90
48686;DHT22;34485;51.536;3.816;2022-11-02T07:07:03;10.70;99.90
48686;DHT22;34485;51.536;3.816;2022-11-02T07:09:29;10.70;99.90
48686;DHT22;34485;51.536;3.816;2022-11-02T07:11:54;10.60;99.90
48686;DHT22;34485;51.536;3.816;2022-11-02T07:14:20;10.60;99.90
48686;DHT22;34485;51.536;3.816;2022-11-02T07:16:45;10.60;99.90
48686;DHT22;34485;51.536;3.816;2022-11-02T07:19:11;10.60;99.90
48686;DHT22;34485;51.536;3.816;2022-11-02T07:21:37;10.60;99.90
48686;DHT22;34485;51.536;3.816;2022-11-02T07:24:03;10.70;99.90
48686;DHT22;34485;51.536;3.816;2022-11-02T07:26:28;10.80;99.90
48686;DHT22;34485;51.536;3.816;2022-11-02T07:28:54;10.90;99.90
48686;DHT22;34485;51.536;3.816;2022-11-02T07:31:19;11.00;99.90
48686;DHT22;34485;51.536;3.816;2022-11-02T07:33:45;11.00;99.90
48686;DHT22;34485;51.536;3.816;2022-11-02T07:36:11;11.10;99.90
48686;DHT22;34485;51.536;3.816;2022-11-02T07:38:36;11.20;99.90
48686;DHT22;34485;51.536;3.816;2022-11-02T07:41:02;11.30;99.90
48686;DHT22;34485;51.536;3.816;2022-11-02T07:43:28;11.50;99.90
48686;DHT22;34485;51.536;3.816;2022-11-02T07:45:53;11.80;99.70
48686;DHT22;34485;51.536;3.816;2022-11-02T07:50:45;12.50;97.40
48686;DHT22;34485;51.536;3.816;2022-11-02T07:53:11;12.70;98.90
48686;DHT22;34485;51.536;3.816;2022-11-02T07:55:36;12.90;99.90
48686;DHT22;34485;51.536;3.816;2022-11-02T07:58:08;13.00;99.70
48686;DHT22;34485;51.536;3.816;2022-11-02T08:00:37;13.30;98.70
48686;DHT22;34485;51.536;3.816;2022-11-02T08:03:04;13.60;97.20
48686;DHT22;34485;51.536;3.816;2022-11-02T08:05:33;13.90;95.70
48686;DHT22;34485;51.536;3.816;2022-11-02T08:08:02;13.90;95.30
48686;DHT22;34485;51.536;3.816;2022-11-02T08:10:29;14.10;94.60
48686;DHT22;34485;51.536;3.816;2022-11-02T08:12:55;14.00;94.60
48686;DHT22;34485;51.536;3.816;2022-11-02T08:15:21;13.90;95.00
48686;DHT22;34485;51.536;3.816;2022-11-02T08:17:47;14.00;95.00
48686;DHT22;34485;51.536;3.816;2022-11-02T08:20:13;14.00;94.90
48686;DHT22;34485;51.536;3.816;2022-11-02T08:22:39;14.00;95.00
48686;DHT22;34485;51.536;3.816;2022-11-02T08:25:06;14.10;94.90
48686;DHT22;34485;51.536;3.816;2022-11-02T08:27:32;14.10;94.90
48686;DHT22;34485;51.536;3.816;2022-11-02T08:29:58;14.10;94.60
48686;DHT22;34485;51.536;3.816;2022-11-02T08:32:23;14.00;95.20
48686;DHT22;34485;51.536;3.816;2022-11-02T08:34:49;14.10;95.60
48686;DHT22;34485;51.536;3.816;2022-11-02T08:37:14;14.30;94.60
48686;DHT22;34485;51.536;3.816;2022-11-02T08:39:40;14.60;94.70
48686;DHT22;34485;51.536;3.816;2022-11-02T08:42:06;14.90;93.40
48686;DHT22;34485;51.536;3.816;2022-11-02T08:44:31;14.80;93.60
48686;DHT22;34485;51.536;3.816;2022-11-02T08:46:57;14.80;93.40
48686;DHT22;34485;51.536;3.816;2022-11-02T08:49:22;15.00;94.00
48686;DHT22;34485;51.536;3.816;2022-11-02T08:51:48;15.40;92.90
48686;DHT22;34485;51.536;3.816;2022-11-02T08:54:14;15.50;92.30
48686;DHT22;34485;51.536;3.816;2022-11-02T08:56:40;15.70;92.50
48686;DHT22;34485;51.536;3.816;2022-11-02T08:59:05;16.00;91.60
48686;DHT22;34485;51.536;3.816;2022-11-02T09:01:31;16.00;91.30
48686;DHT22;34485;51.536;3.816;2022-11-02T09:03:57;15.90;90.40
48686;DHT22;34485;51.536;3.816;2022-11-02T09:06:23;16.10;91.90
48686;DHT22;34485;51.536;3.816;2022-11-02T09:08:48;16.10;90.10
48686;DHT22;34485;51.536;3.816;2022-11-02T09:11:14;15.90;90.60
48686;DHT22;34485;51.536;3.816;2022-11-02T09:13:40;15.80;91.10
48686;DHT22;34485;51.536;3.816;2022-11-02T09:16:06;16.20;91.00
48686;DHT22;34485;51.536;3.816;2022-11-02T09:18:32;16.30;90.00
48686;DHT22;34485;51.536;3.816;2022-11-02T09:21:03;16.60;88.50
48686;DHT22;34485;51.536;3.816;2022-11-02T09:23:29;16.20;89.20
48686;DHT22;34485;51.536;3.816;2022-11-02T09:25:56;16.40;89.20
48686;DHT22;34485;51.536;3.816;2022-11-02T09:28:22;16.40;88.00
48686;DHT22;34485;51.536;3.816;2022-11-02T09:30:48;16.50;88.00
48686;DHT22;34485;51.536;3.816;2022-11-02T09:33:13;16.60;88.30
48686;DHT22;34485;51.536;3.816;2022-11-02T09:35:47;16.80;88.20
48686;DHT22;34485;51.536;3.816;2022-11-02T09:38:13;16.80;86.50
48686;DHT22;34485;51.536;3.816;2022-11-02T09:45:54;17.20;86.50
48686;DHT22;34485;51.536;3.816;2022-11-02T09:48:44;17.40;87.30
48686;DHT22;34485;51.536;3.816;2022-11-02T09:51:15;17.40;84.60
48686;DHT22;34485;51.536;3.816;2022-11-02T09:56:17;17.30;85.70
48686;DHT22;34485;51.536;3.816;2022-11-02T10:04:38;17.70;85.90
48686;DHT22;34485;51.536;3.816;2022-11-02T10:07:41;18.00;84.70
48686;DHT22;34485;51.536;3.816;2022-11-02T10:15:40;17.50;84.20
48686;DHT22;34485;51.536;3.816;2022-11-02T10:18:13;17.30;85.40
48686;DHT22;34485;51.536;3.816;2022-11-02T10:20:46;17.10;87.50
48686;DHT22;34485;51.536;3.816;2022-11-02T10:23:32;16.90;88.10
48686;DHT22;34485;51.536;3.816;2022-11-02T10:26:00;17.10;88.10
48686;DHT22;34485;51.536;3.816;2022-11-02T10:28:31;16.90;89.60
48686;DHT22;34485;51.536;3.816;2022-11-02T10:30:58;17.00;91.50
48686;DHT22;34485;51.536;3.816;2022-11-02T10:33:26;17.00;89.80
48686;DHT22;34485;51.536;3.816;2022-11-02T10:36:09;16.70;90.50
48686;DHT22;34485;51.536;3.816;2022-11-02T10:39:10;16.80;91.00
48686;DHT22;34485;51.536;3.816;2022-11-02T10:41:58;16.90;90.70
48686;DHT22;34485;51.536;3.816;2022-11-02T10:44:58;16.90;89.80
48686;DHT22;34485;51.536;3.816;2022-11-02T10:47:41;16.60;90.80
48686;DHT22;34485;51.536;3.816;2022-11-02T10:52:40;16.30;92.20
48686;DHT22;34485;51.536;3.816;2022-11-02T10:57:59;15.90;93.50
48686;DHT22;34485;51.536;3.816;2022-11-02T11:00:35;15.60;95.00
48686;DHT22;34485;51.536;3.816;2022-11-02T11:03:15;15.40;95.60
48686;DHT22;34485;51.536;3.816;2022-11-02T11:08:39;15.20;97.50
48686;DHT22;34485;51.536;3.816;2022-11-02T11:11:19;15.10;97.00
48686;DHT22;34485;51.536;3.816;2022-11-02T11:14:06;15.00;98.50
48686;DHT22;34485;51.536;3.816;2022-11-02T11:16:40;15.00;97.80
48686;DHT22;34485;51.536;3.816;2022-11-02T11:19:18;14.90;98.00
48686;DHT22;34485;51.536;3.816;2022-11-02T11:21:45;14.80;97.90
48686;DHT22;34485;51.536;3.816;2022-11-02T11:24:23;14.70;99.00
48686;DHT22;34485;51.536;3.816;2022-11-02T11:29:38;14.70;98.70
48686;DHT22;34485;51.536;3.816;2022-11-02T11:32:16;14.60;98.50
48686;DHT22;34485;51.536;3.816;2022-11-02T11:34:44;14.60;99.70
48686;DHT22;34485;51.536;3.816;2022-11-02T11:37:14;14.60;99.70
48686;DHT22;34485;51.536;3.816;2022-11-02T11:39:43;14.60;99.30
48686;DHT22;34485;51.536;3.816;2022-11-02T11:42:30;14.60;99.90
48686;DHT22;34485;51.536;3.816;2022-11-02T11:47:50;14.70;99.90
48686;DHT22;34485;51.536;3.816;2022-11-02T11:50:17;14.70;99.50
48686;DHT22;34485;51.536;3.816;2022-11-02T11:52:43;14.60;99.90
48686;DHT22;34485;51.536;3.816;2022-11-02T11:55:19;14.60;99.90
48686;DHT22;34485;51.536;3.816;2022-11-02T11:57:45;14.70;99.90
48686;DHT22;34485;51.536;3.816;2022-11-02T12:00:27;14.60;99.80
48686;DHT22;34485;51.536;3.816;2022-11-02T12:03:07;14.70;99.90
48686;DHT22;34485;51.536;3.816;2022-11-02T12:05:49;14.70;99.90
48686;DHT22;34485;51.536;3.816;2022-11-02T12:08:48;14.80;99.90
48686;DHT22;34485;51.536;3.816;2022-11-02T12:11:37;14.90;99.30
48686;DHT22;34485;51.536;3.816;2022-11-02T12:17:23;15.10;99.90
48686;DHT22;34485;51.536;3.816;2022-11-02T12:30:51;14.90;98.10
48686;DHT22;34485;51.536;3.816;2022-11-02T12:33:47;14.90;98.30
48686;DHT22;34485;51.536;3.816;2022-11-02T12:36:35;14.90;98.00
48686;DHT22;34485;51.536;3.816;2022-11-02T12:47:38;15.10;98.50
48686;DHT22;34485;51.536;3.816;2022-11-02T12:50:13;15.10;97.50
48686;DHT22;34485;51.536;3.816;2022-11-02T12:55:20;15.00;95.80
48686;DHT22;34485;51.536;3.816;2022-11-02T12:57:48;15.00;97.30
48686;DHT22;34485;51.536;3.816;2022-11-02T13:00:17;14.90;95.70
48686;DHT22;34485;51.536;3.816;2022-11-02T13:03:00;14.90;96.60
48686;DHT22;34485;51.536;3.816;2022-11-02T13:05:31;15.00;95.90
48686;DHT22;34485;51.536;3.816;2022-11-02T13:10:54;14.90;96.30
48686;DHT22;34485;51.536;3.816;2022-11-02T13:13:33;14.90;94.60
48686;DHT22;34485;51.536;3.816;2022-11-02T13:16:02;14.80;94.40
48686;DHT22;34485;51.536;3.816;2022-11-02T13:18:30;14.70;93.60
48686;DHT22;34485;51.536;3.816;2022-11-02T13:20:59;14.70;96.10
48686;DHT22;34485;51.536;3.816;2022-11-02T13:23:39;14.70;95.50
48686;DHT22;34485;51.536;3.816;2022-11-02T13:26:27;14.80;94.80
48686;DHT22;34485;51.536;3.816;2022-11-02T13:29:18;14.90;93.40
48686;DHT22;34485;51.536;3.816;2022-11-02T13:32:07;14.90;94.50
48686;DHT22;34485;51.536;3.816;2022-11-02T13:34:40;14.90;95.90
48686;DHT22;34485;51.536;3.816;2022-11-02T13:37:15;14.90;96.90
48686;DHT22;34485;51.536;3.816;2022-11-02T13:39:54;14.80;94.40
48686;DHT22;34485;51.536;3.816;2022-11-02T13:50:30;14.80;91.80
48686;DHT22;34485;51.536;3.816;2022-11-02T13:53:00;14.70;91.10
48686;DHT22;34485;51.536;3.816;2022-11-02T13:55:50;14.60;91.80
48686;DHT22;34485;51.536;3.816;2022-11-02T13:58:26;14.50;93.60
48686;DHT22;34485;51.536;3.816;2022-11-02T14:01:01;14.50;92.70
48686;DHT22;34485;51.536;3.816;2022-11-02T14:03:40;14.40;94.50
48686;DHT22;34485;51.536;3.816;2022-11-02T14:06:12;14.40;93.80
48686;DHT22;34485;51.536;3.816;2022-11-02T14:08:53;14.30;93.20
48686;DHT22;34485;51.536;3.816;2022-11-02T14:12:09;14.30;93.10
48686;DHT22;34485;51.536;3.816;2022-11-02T14:14:21;14.20;93.50
48686;DHT22;34485;51.536;3.816;2022-11-02T14:26:57;14.00;94.30
48686;DHT22;34485;51.536;3.816;2022-11-02T14:32:37;14.00;94.20
48686;DHT22;34485;51.536;3.816;2022-11-02T14:35:26;14.00;94.20
48686;DHT22;34485;51.536;3.816;2022-11-02T14:40:25;14.00;94.50
48686;DHT22;34485;51.536;3.816;2022-11-02T14:48:54;13.90;94.50
48686;DHT22;34485;51.536;3.816;2022-11-02T14:51:34;13.90;95.30
48686;DHT22;34485;51.536;3.816;2022-11-02T14:54:15;13.80;94.10
48686;DHT22;34485;51.536;3.816;2022-11-02T14:57:04;13.90;94.40
48686;DHT22;34485;51.536;3.816;2022-11-02T14:59:34;13.80;95.70
48686;DHT22;34485;51.536;3.816;2022-11-02T15:02:05;13.80;95.70
48686;DHT22;34485;51.536;3.816;2022-11-02T15:04:33;13.80;95.80
48686;DHT22;34485;51.536;3.816;2022-11-02T15:07:02;13.80;94.40
48686;DHT22;34485;51.536;3.816;2022-11-02T15:12:27;13.70;93.90
48686;DHT22;34485;51.536;3.816;2022-11-02T15:14:57;13.70;93.40
48686;DHT22;34485;51.536;3.816;2022-11-02T15:19:50;13.70;93.80
48686;DHT22;34485;51.536;3.816;2022-11-02T15:22:47;13.60;93.70
48686;DHT22;34485;51.536;3.816;2022-11-02T15:25:29;13.60;93.70
48686;DHT22;34485;51.536;3.816;2022-11-02T15:28:04;13.60;94.60
48686;DHT22;34485;51.536;3.816;2022-11-02T15:30:31;13.50;94.30
48686;DHT22;34485;51.536;3.816;2022-11-02T15:33:04;13.50;94.20
48686;DHT22;34485;51.536;3.816;2022-11-02T15:35:36;13.50;94.40
48686;DHT22;34485;51.536;3.816;2022-11-02T15:38:03;13.40;94.40
48686;DHT22;34485;51.536;3.816;2022-11-02T15:40:41;13.40;94.10
48686;DHT22;34485;51.536;3.816;2022-11-02T15:46:23;13.40;94.30
48686;DHT22;34485;51.536;3.816;2022-11-02T15:50:08;13.40;94.10
48686;DHT22;34485;51.536;3.816;2022-11-02T15:58:05;13.40;99.90
48686;DHT22;34485;51.536;3.816;2022-11-02T16:00:36;13.30;99.90
48686;DHT22;34485;51.536;3.816;2022-11-02T16:03:04;13.30;99.90
48686;DHT22;34485;51.536;3.816;2022-11-02T16:05:42;13.30;99.90
48686;DHT22;34485;51.536;3.816;2022-11-02T16:08:33;13.20;99.90
48686;DHT22;34485;51.536;3.816;2022-11-02T16:11:10;13.10;99.90
48686;DHT22;34485;51.536;3.816;2022-11-02T16:53:41;13.00;99.90
48686;DHT22;34485;51.536;3.816;2022-11-02T16:56:17;13.20;98.20
48686;DHT22;34485;51.536;3.816;2022-11-02T17:01:25;13.00;93.30
48686;DHT22;34485;51.536;3.816;2022-11-02T17:03:52;13.00;93.40
48686;DHT22;34485;51.536;3.816;2022-11-02T17:06:18;13.00;93.60
48686;DHT22;34485;51.536;3.816;2022-11-02T17:08:49;13.00;93.90
48686;DHT22;34485;51.536;3.816;2022-11-02T17:11:16;12.90;93.90
48686;DHT22;34485;51.536;3.816;2022-11-02T17:13:49;12.90;94.00
48686;DHT22;34485;51.536;3.816;2022-11-02T17:16:16;12.90;94.30
48686;DHT22;34485;51.536;3.816;2022-11-02T17:18:42;12.90;94.10
48686;DHT22;34485;51.536;3.816;2022-11-02T17:21:24;12.90;94.20
48686;DHT22;34485;51.536;3.816;2022-11-02T17:23:50;12.90;94.30
48686;DHT22;34485;51.536;3.816;2022-11-02T17:26:27;12.90;94.30
48686;DHT22;34485;51.536;3.816;2022-11-02T17:28:58;12.90;94.20
48686;DHT22;34485;51.536;3.816;2022-11-02T17:31:37;12.90;94.40
48686;DHT22;34485;51.536;3.816;2022-11-02T17:34:23;12.80;94.70
48686;DHT22;34485;51.536;3.816;2022-11-02T17:36:49;12.80;94.60
48686;DHT22;34485;51.536;3.816;2022-11-02T17:39:17;12.80;94.70
48686;DHT22;34485;51.536;3.816;2022-11-02T17:41:46;12.80;94.90
48686;DHT22;34485;51.536;3.816;2022-11-02T17:44:32;12.70;94.80
48686;DHT22;34485;51.536;3.816;2022-11-02T17:46:58;12.80;94.80
48686;DHT22;34485;51.536;3.816;2022-11-02T17:49:23;12.80;94.80
48686;DHT22;34485;51.536;3.816;2022-11-02T17:51:49;12.80;94.90
48686;DHT22;34485;51.536;3.816;2022-11-02T17:54:15;12.70;95.00
48686;DHT22;34485;51.536;3.816;2022-11-02T17:56:40;12.70;95.00
48686;DHT22;34485;51.536;3.816;2022-11-02T17:59:06;12.80;95.70
48686;DHT22;34485;51.536;3.816;2022-11-02T18:01:32;12.80;95.00
48686;DHT22;34485;51.536;3.816;2022-11-02T18:03:57;12.80;94.70
48686;DHT22;34485;51.536;3.816;2022-11-02T18:06:23;12.80;95.20
48686;DHT22;34485;51.536;3.816;2022-11-02T18:08:49;12.80;95.30
48686;DHT22;34485;51.536;3.816;2022-11-02T18:11:33;12.80;95.60
48686;DHT22;34485;51.536;3.816;2022-11-02T18:13:58;12.70;95.10
48686;DHT22;34485;51.536;3.816;2022-11-02T18:16:24;12.70;95.60
48686;DHT22;34485;51.536;3.816;2022-11-02T18:18:50;12.70;95.20
48686;DHT22;34485;51.536;3.816;2022-11-02T18:21:15;12.80;95.20
48686;DHT22;34485;51.536;3.816;2022-11-02T18:23:41;12.80;95.50
48686;DHT22;34485;51.536;3.816;2022-11-02T18:26:09;12.70;95.60
48686;DHT22;34485;51.536;3.816;2022-11-02T18:28:35;12.80;95.60
48686;DHT22;34485;51.536;3.816;2022-11-02T18:31:01;12.80;95.50
48686;DHT22;34485;51.536;3.816;2022-11-02T18:33:26;12.80;95.60
48686;DHT22;34485;51.536;3.816;2022-11-02T18:35:52;12.80;95.00
48686;DHT22;34485;51.536;3.816;2022-11-02T18:38:25;12.80;95.30
48686;DHT22;34485;51.536;3.816;2022-11-02T18:40:51;12.80;96.00
48686;DHT22;34485;51.536;3.816;2022-11-02T18:43:16;12.70;96.00
48686;DHT22;34485;51.536;3.816;2022-11-02T18:45:42;12.70;95.90
48686;DHT22;34485;51.536;3.816;2022-11-02T18:48:07;12.70;95.90
48686;DHT22;34485;51.536;3.816;2022-11-02T18:50:33;12.70;96.40
48686;DHT22;34485;51.536;3.816;2022-11-02T18:52:59;12.60;96.40
48686;DHT22;34485;51.536;3.816;2022-11-02T18:55:24;12.60;96.40
48686;DHT22;34485;51.536;3.816;2022-11-02T18:57:50;12.60;96.10